Lanzarote, Canary Islands

5:46 PM WEST on October 25, 2014 (GMT +0100)
Lanzarote | Change Station
CLOSE
Current Station
Airport
Location: Lanzarote,
Elevation: 69 ft
Nearby Weather Stations

Elev 69 ft 28.95 °N, 13.60 °W | Updated 16 minutes ago

Clear
Clear
75 °F
Feels Like 75 °F
N
12
Wind Variable Wind from ENE

Today
High -- | Low -- °F
--% Chance of Precip.
Yesterday
High -- | Low -- °F
Precip. -- in
8:01 AM 7:14 PM
Waxing Crescent, 3% visible
Pressure 30.01 in
Visibility -9999.0 miles
Clouds
Dew Point 72 °F
Humidity 89%
Rainfall 0.00 in
Snow Depth Not available.
UV Not available.
Pollen Not available.
Air Quality Not available.
Flu Activity Not available.
METAR GCRR 251630Z 07010KT CAVOK 24/22 Q1016

More Conditions Fewer Conditions

Pressure 30.01 in
Visibility -9999.0 miles
Clouds
Dew Point 72 °F
Humidity 89%
Rainfall 0.00 in
Snow Depth Not available.
UV Not available.
Pollen Not available.
Air Quality Not available.
Flu Activity Not available.
METAR GCRR 251630Z 07010KT CAVOK 24/22 Q1016

More Conditions Fewer Conditions

10-Day Weather Forecast

Almanac

Astronomy

Oct. 25, 2014 Rise Set
Actual Time 8:01 AM WEST 7:14 PM WEST
Civil Twilight 7:37 AM WEST 7:38 PM WEST
Nautical Twilight 7:09 AM WEST 8:06 PM WEST
Astronomical Twilight 6:42 AM WEST 8:34 PM WEST
Moon 9:22 AM WEST 8:34 PM WEST
Length of Visible Light 12h 01m
Length of Day
11h 12m
Tomorrow will be 1m 34s shorter.
Waxing Crescent, 3% of the Moon is Illuminated
Today
Waxing Crescent
Oct 30
First Quarter
Nov 6
Full
Nov 14
Last Quarter
Nov 22
New

Today's Extremes

Country Highs Country Lows

Community

WunderPhotos

Upload Photos

1,764,901 photos uploaded!

Nearby

Snow Depth

Not available.

Earthquake Activity

City Distance Mag. Time & Date
No recent earthquake activity has been reported nearby.
Minimum magnitude displayed is 2.5.

Coastal Water Temperatures

Place Temperature
No Stations Reporting

Nearby Weather Stations